createdAt,value
2019-02-21T00:00:24.194Z,7.94
2019-02-21T00:10:27.673Z,8.03
2019-02-21T00:20:33.380Z,7.81
2019-02-21T00:30:39.323Z,7.84
2019-02-21T00:40:44.979Z,7.84
2019-02-21T00:50:51.234Z,7.73
2019-02-21T01:00:57.003Z,7.66
2019-02-21T01:11:03.251Z,7.58
2019-02-21T01:21:09.123Z,7.58
2019-02-21T01:31:14.918Z,7.60
2019-02-21T01:41:20.623Z,7.46
2019-02-21T01:51:26.450Z,7.46
2019-02-21T02:01:32.243Z,7.57
2019-02-21T02:11:38.148Z,7.54
2019-02-21T02:21:44.165Z,7.56
2019-02-21T02:31:50.273Z,7.56
2019-02-21T02:41:55.979Z,7.47
2019-02-21T02:52:01.655Z,7.47
2019-02-21T03:02:07.533Z,7.64
2019-02-21T03:12:13.463Z,7.65
2019-02-21T03:22:19.368Z,7.59
2019-02-21T03:32:25.106Z,7.36
2019-02-21T03:42:30.968Z,7.36
2019-02-21T03:52:37.927Z,7.22
2019-02-21T04:02:43.812Z,7.20
2019-02-21T04:12:50.382Z,7.20
2019-02-21T04:22:56.261Z,7.19
2019-02-21T04:33:02.132Z,7.14
2019-02-21T04:43:08.244Z,7.14
2019-02-21T04:53:14.414Z,7.24
2019-02-21T05:03:20.177Z,7.21
2019-02-21T05:13:26.414Z,7.24
2019-02-21T05:23:32.302Z,7.26
2019-02-21T05:33:57.755Z,7.36
2019-02-21T05:44:05.386Z,7.36
2019-02-21T05:54:16.010Z,7.36
2019-02-21T06:04:23.495Z,7.20
2019-02-21T06:14:30.820Z,7.20
2019-02-21T06:24:47.446Z,7.13
2019-02-21T06:34:53.343Z,7.14
2019-02-21T06:44:59.213Z,7.51
2019-02-21T06:55:05.632Z,7.13
2019-02-21T07:05:11.403Z,7.07
2019-02-21T07:15:17.421Z,7.05
2019-02-21T07:25:27.830Z,7.16
2019-02-21T07:35:33.962Z,7.07
2019-02-21T07:45:40.326Z,7.22
2019-02-21T07:55:46.338Z,7.13
2019-02-21T08:05:52.037Z,7.13
2019-02-21T08:15:59.165Z,7.32
2019-02-21T08:26:06.005Z,7.22
2019-02-21T08:36:12.364Z,7.28
2019-02-21T08:46:18.485Z,7.41
2019-02-21T08:56:24.482Z,7.41
2019-02-21T09:06:31.274Z,7.36
2019-02-21T09:16:37.059Z,7.39
2019-02-21T09:26:42.973Z,7.16
2019-02-21T09:36:49.066Z,7.12
2019-02-21T09:46:54.792Z,7.17
2019-02-21T09:57:00.746Z,7.47
2019-02-21T10:07:06.490Z,7.47
2019-02-21T10:17:12.314Z,7.47
2019-02-21T10:27:18.187Z,7.79
2019-02-21T10:37:24.344Z,8.02
2019-02-21T10:47:31.447Z,8.16
2019-02-21T10:57:38.263Z,8.51
2019-02-21T11:07:44.272Z,8.45
2019-02-21T11:17:50.997Z,8.28
2019-02-21T11:27:56.891Z,8.61
2019-02-21T11:38:02.636Z,9.28
2019-02-21T11:48:09.345Z,9.53
2019-02-21T11:58:15.339Z,9.68
2019-02-21T12:08:21.120Z,9.81
2019-02-21T12:18:26.942Z,9.97
2019-02-21T12:28:32.754Z,10.01
2019-02-21T12:38:39.517Z,10.05
2019-02-21T12:48:45.298Z,9.84
2019-02-21T12:58:51.152Z,9.89
2019-02-21T13:08:57.146Z,9.92
2019-02-21T13:19:02.893Z,9.81
2019-02-21T13:29:09.000Z,9.69
2019-02-21T13:39:14.973Z,9.60
2019-02-21T13:49:20.906Z,9.41
2019-02-21T13:59:27.025Z,9.29
2019-02-21T14:09:33.995Z,9.27
2019-02-21T14:19:40.167Z,9.00
2019-02-21T14:29:45.995Z,8.98
2019-02-21T14:39:51.987Z,8.89
2019-02-21T14:49:57.909Z,8.76
2019-02-21T15:00:05.371Z,8.74
2019-02-21T15:10:11.525Z,8.71
2019-02-21T15:20:17.873Z,8.73
2019-02-21T15:30:28.305Z,8.71
2019-02-21T15:40:34.261Z,8.70
2019-02-21T15:50:40.223Z,8.66
2019-02-21T16:00:46.062Z,8.73
2019-02-21T16:10:52.025Z,8.65
2019-02-21T16:20:57.881Z,8.72
2019-02-21T16:31:03.786Z,8.70
2019-02-21T16:41:09.784Z,8.78
2019-02-21T16:51:15.503Z,8.81
2019-02-21T17:01:21.678Z,8.83
2019-02-21T17:11:27.813Z,8.80
2019-02-21T17:21:33.643Z,8.81
2019-02-21T17:31:39.546Z,8.78
2019-02-21T17:41:46.301Z,8.77
2019-02-21T17:51:53.736Z,8.79
2019-02-21T18:01:59.566Z,8.68
2019-02-21T18:12:05.695Z,8.75
2019-02-21T18:22:11.673Z,8.65
2019-02-21T18:32:17.624Z,8.77
2019-02-21T18:42:23.323Z,8.70
2019-02-21T18:52:29.029Z,8.76
2019-02-21T19:02:35.333Z,8.72
2019-02-21T19:12:41.140Z,8.76
2019-02-21T19:22:49.135Z,8.82
2019-02-21T19:32:54.892Z,8.78
2019-02-21T19:43:00.798Z,8.81
2019-02-21T19:53:06.711Z,8.83
2019-02-21T20:03:12.705Z,8.82
2019-02-21T20:13:18.764Z,8.58
2019-02-21T20:23:24.807Z,8.55
2019-02-21T20:33:31.722Z,8.43
2019-02-21T20:43:37.672Z,8.32
2019-02-21T20:53:43.677Z,8.50
2019-02-21T21:03:49.732Z,8.16
2019-02-21T21:13:56.530Z,8.38
2019-02-21T21:24:04.909Z,8.22
2019-02-21T21:34:10.693Z,8.16
2019-02-21T21:44:16.904Z,8.18
2019-02-21T21:54:23.430Z,8.23
2019-02-21T22:04:29.370Z,8.21
2019-02-21T22:14:35.322Z,8.21
2019-02-21T22:24:43.761Z,8.14
2019-02-21T22:34:49.921Z,8.13
2019-02-21T22:44:56.128Z,8.33
2019-02-21T22:55:09.820Z,8.08
2019-02-21T23:05:27.904Z,8.21
2019-02-21T23:15:33.907Z,8.03
2019-02-21T23:25:39.912Z,8.21
2019-02-21T23:35:46.838Z,7.67
2019-02-21T23:45:53.257Z,7.30
2019-02-21T23:55:59.198Z,7.30
